Time;durP1;ratioP1;P1;durP2;ratioP2;P2;SDS_P1;SDS_P2;PMS_P1;PMS_P2;Temp;Humidity;BMP_temperature;BMP_pressure;BME280_temperature;BME280_humidity;BME280_pressure;Samples;Min_cycle;Max_cycle;Signal;HPM_P1;HPM_P2
2022/04/04 00:00:12;;;;;;;6.10;3.57;;;3.20;99.90;;;;;;5098738;28;20449;-78
2022/04/04 00:02:41;;;;;;;8.03;3.67;;;3.20;99.90;;;;;;5098193;28;20514;-78
2022/04/04 00:05:10;;;;;;;3.73;3.10;;;3.20;99.90;;;;;;5105821;28;20468;-79
2022/04/04 00:07:39;;;;;;;6.83;3.97;;;3.20;99.90;;;;;;5107072;28;20459;-79
2022/04/04 00:10:08;;;;;;;4.77;3.87;;;3.20;99.90;;;;;;5097349;28;20451;-80
2022/04/04 00:12:38;;;;;;;5.17;4.30;;;3.20;99.90;;;;;;5117675;28;20503;-78
2022/04/04 00:15:07;;;;;;;6.90;3.97;;;3.20;99.90;;;;;;5117694;28;20460;-79
2022/04/04 00:17:36;;;;;;;5.73;3.90;;;3.20;99.90;;;;;;5106244;28;20463;-79
2022/04/04 00:20:07;;;;;;;4.90;3.70;;;3.20;99.90;;;;;;5098368;28;20988;-79
2022/04/04 00:22:35;;;;;;;4.57;3.90;;;3.20;99.90;;;;;;5105534;28;20491;-78
2022/04/04 00:25:04;;;;;;;4.60;4.13;;;3.20;99.90;;;;;;5105584;28;20511;-78
2022/04/04 00:27:32;;;;;;;4.93;4.00;;;3.20;99.90;;;;;;5102945;28;20491;-79
2022/04/04 00:30:02;;;;;;;9.73;4.03;;;3.20;99.90;;;;;;5097683;28;20459;-79
2022/04/04 00:32:30;;;;;;;5.50;4.60;;;3.20;99.90;;;;;;5105837;28;20515;-78
2022/04/04 00:35:00;;;;;;;4.60;4.20;;;3.20;99.90;;;;;;5104979;28;21011;-78
2022/04/04 00:37:28;;;;;;;6.63;4.37;;;3.20;99.90;;;;;;5098525;28;20499;-79
2022/04/04 00:39:56;;;;;;;6.03;4.40;;;3.20;99.90;;;;;;5099902;28;20960;-79
2022/04/04 00:42:25;;;;;;;6.13;4.40;;;3.20;99.90;;;;;;5097049;28;20472;-78
2022/04/04 00:44:53;;;;;;;5.00;4.13;;;3.20;99.90;;;;;;5096948;28;20497;-78
2022/04/04 00:47:23;;;;;;;6.03;5.07;;;3.20;99.90;;;;;;5097874;28;20451;-78
2022/04/04 00:49:51;;;;;;;4.20;3.80;;;3.20;99.90;;;;;;5103352;28;20479;-78
2022/04/04 00:52:19;;;;;;;4.67;4.20;;;3.20;99.90;;;;;;5116974;28;20508;-79
2022/04/04 00:54:48;;;;;;;4.73;4.10;;;3.20;99.90;;;;;;5113018;28;20497;-79
2022/04/04 00:57:17;;;;;;;5.37;4.67;;;3.20;99.90;;;;;;5115217;28;20554;-78
2022/04/04 00:59:48;;;;;;;5.20;3.97;;;3.20;99.90;;;;;;5117728;28;20482;-78
2022/04/04 01:02:16;;;;;;;5.40;4.50;;;3.20;99.90;;;;;;5117645;28;20880;-79
2022/04/04 01:04:46;;;;;;;5.70;3.70;;;3.20;99.90;;;;;;5115260;28;20542;-78
2022/04/04 01:07:14;;;;;;;5.10;4.30;;;3.20;99.90;;;;;;5118052;28;20475;-79
2022/04/04 01:09:43;;;;;;;5.33;3.97;;;3.20;99.90;;;;;;5117582;28;20893;-79
2022/04/04 01:12:13;;;;;;;5.47;4.17;;;3.20;99.90;;;;;;5113437;28;20478;-78
2022/04/04 01:14:46;;;;;;;4.90;3.93;;;3.20;99.90;;;;;;5110685;28;20526;-79
2022/04/04 01:17:15;;;;;;;5.03;4.53;;;3.20;99.90;;;;;;5096983;28;20550;-79
2022/04/04 01:19:44;;;;;;;4.90;4.40;;;3.20;99.90;;;;;;5103733;28;20952;-79
2022/04/04 01:22:14;;;;;;;5.30;4.67;;;3.20;99.90;;;;;;5116125;28;20554;-79
2022/04/04 01:24:45;;;;;;;6.40;4.33;;;3.20;99.90;;;;;;5108705;28;20541;-78
2022/04/04 01:27:14;;;;;;;6.13;4.37;;;3.20;99.90;;;;;;5112631;28;21031;-78
2022/04/04 01:29:42;;;;;;;5.67;4.50;;;3.20;99.90;;;;;;5110265;28;20439;-78
2022/04/04 01:32:11;;;;;;;4.90;3.80;;;3.20;99.90;;;;;;5108188;28;20451;-79
2022/04/04 01:34:40;;;;;;;5.60;4.50;;;3.20;99.90;;;;;;5097089;28;20480;-79
2022/04/04 01:37:08;;;;;;;6.77;4.17;;;3.30;99.90;;;;;;5106541;28;20824;-79
2022/04/04 01:39:36;;;;;;;5.23;4.50;;;3.20;99.90;;;;;;5116971;28;20800;-79
2022/04/04 01:42:06;;;;;;;5.53;4.83;;;3.30;99.90;;;;;;5107364;28;20832;-79
2022/04/04 01:44:35;;;;;;;6.60;4.13;;;3.30;99.90;;;;;;5096153;28;20558;-78
2022/04/04 01:47:05;;;;;;;5.03;4.30;;;3.30;99.90;;;;;;5097448;28;20491;-78
2022/04/04 01:49:33;;;;;;;5.87;5.10;;;3.30;99.90;;;;;;5112371;28;20462;-78
2022/04/04 01:52:02;;;;;;;5.13;4.40;;;3.30;99.90;;;;;;5117082;28;20452;-79
2022/04/04 01:54:30;;;;;;;6.27;5.07;;;3.30;99.90;;;;;;5127058;28;20469;-78
2022/04/04 01:57:07;;;;;;;6.00;5.00;;;3.30;99.90;;;;;;5119475;28;20454;-79
2022/04/04 01:59:36;;;;;;;5.70;4.43;;;3.30;99.90;;;;;;5112993;28;20444;-79
2022/04/04 02:02:05;;;;;;;5.80;4.67;;;3.30;99.90;;;;;;5107503;28;20479;-79
2022/04/04 02:04:33;;;;;;;4.93;4.43;;;3.30;99.90;;;;;;5115976;28;20471;-79
2022/04/04 02:07:02;;;;;;;6.00;4.93;;;3.30;99.90;;;;;;5120985;28;20455;-78
2022/04/04 02:09:31;;;;;;;6.17;4.43;;;3.30;99.90;;;;;;5117215;28;20511;-78
2022/04/04 02:12:00;;;;;;;5.67;5.00;;;3.30;99.90;;;;;;5122499;28;20443;-78
2022/04/04 02:14:29;;;;;;;5.63;4.33;;;3.30;99.90;;;;;;5130585;28;20447;-78
2022/04/04 02:16:58;;;;;;;6.03;5.47;;;3.30;99.90;;;;;;5108774;28;20490;-78
2022/04/04 02:19:26;;;;;;;5.27;4.77;;;3.30;99.90;;;;;;5114322;28;20560;-78
2022/04/04 02:21:55;;;;;;;6.40;4.80;;;3.30;99.90;;;;;;5121248;28;20454;-78
2022/04/04 02:24:23;;;;;;;5.40;4.90;;;3.30;99.90;;;;;;5106547;28;20448;-79
2022/04/04 02:26:52;;;;;;;7.00;4.70;;;3.30;99.90;;;;;;5115015;28;20545;-79
2022/04/04 02:29:20;;;;;;;5.73;5.23;;;3.30;99.90;;;;;;5121921;28;20423;-79
2022/04/04 02:31:50;;;;;;;4.40;4.00;;;3.30;99.90;;;;;;5120434;28;20804;-79
2022/04/04 02:34:18;;;;;;;6.33;5.33;;;3.30;99.90;;;;;;5116907;28;20475;-78
2022/04/04 02:36:47;;;;;;;6.17;4.73;;;3.30;99.90;;;;;;5099822;28;20452;-79
2022/04/04 02:39:15;;;;;;;7.27;5.47;;;3.30;99.90;;;;;;5099912;28;20459;-79
2022/04/04 02:41:44;;;;;;;5.83;5.23;;;3.40;99.90;;;;;;5114012;28;20978;-79
2022/04/04 02:44:13;;;;;;;5.30;4.60;;;3.40;99.90;;;;;;5112145;28;20474;-78
2022/04/04 02:46:41;;;;;;;5.13;4.63;;;3.40;99.90;;;;;;5120615;28;20450;-79
2022/04/04 02:49:11;;;;;;;6.67;5.20;;;3.40;99.90;;;;;;5119324;28;20447;-79
2022/04/04 02:51:39;;;;;;;5.03;4.43;;;3.40;99.90;;;;;;5099289;28;20455;-78
2022/04/04 02:54:08;;;;;;;6.73;5.07;;;3.40;99.90;;;;;;5099792;28;20447;-79
2022/04/04 02:56:39;;;;;;;6.70;5.00;;;3.40;99.90;;;;;;5106764;28;20540;-79
2022/04/04 02:59:07;;;;;;;5.73;5.23;;;3.40;99.90;;;;;;5099733;28;20443;-78
2022/04/04 03:01:36;;;;;;;7.50;5.30;;;3.40;99.90;;;;;;5099578;28;20547;-78
2022/04/04 03:04:05;;;;;;;9.43;6.10;;;3.50;99.90;;;;;;5103933;28;20474;-79
2022/04/04 03:06:35;;;;;;;6.50;5.90;;;3.50;99.90;;;;;;5114805;28;20464;-79
2022/04/04 03:09:04;;;;;;;7.23;6.07;;;3.50;99.90;;;;;;5101942;28;20433;-80
2022/04/04 03:11:32;;;;;;;6.60;6.00;;;3.50;99.90;;;;;;5115451;28;20444;-80
2022/04/04 03:14:00;;;;;;;7.07;6.37;;;3.50;99.90;;;;;;5101387;28;20450;-80
2022/04/04 03:16:28;;;;;;;6.97;6.10;;;3.50;99.90;;;;;;5118160;28;20475;-79
2022/04/04 03:18:58;;;;;;;7.80;6.60;;;3.50;99.90;;;;;;5121072;28;20516;-79
2022/04/04 03:21:28;;;;;;;7.17;6.47;;;3.60;99.90;;;;;;5115443;28;20467;-79
2022/04/04 03:23:59;;;;;;;8.00;7.07;;;3.60;99.90;;;;;;5100317;28;20832;-79
2022/04/04 03:26:31;;;;;;;8.53;7.73;;;3.60;99.90;;;;;;5111490;28;20475;-79
2022/04/04 03:28:59;;;;;;;9.10;7.67;;;3.60;99.90;;;;;;5119400;28;20443;-79
2022/04/04 03:31:27;;;;;;;7.63;6.93;;;3.60;99.90;;;;;;5118876;28;20451;-79
2022/04/04 03:33:56;;;;;;;8.47;7.63;;;3.60;99.90;;;;;;5116777;28;20542;-79
2022/04/04 03:36:24;;;;;;;7.83;7.13;;;3.60;99.90;;;;;;5103226;28;20463;-79
2022/04/04 03:38:52;;;;;;;9.30;7.90;;;3.60;99.90;;;;;;5119567;28;20486;-80
2022/04/04 03:41:22;;;;;;;8.60;7.80;;;3.60;99.90;;;;;;5118262;28;20955;-78
2022/04/04 03:43:50;;;;;;;9.00;7.50;;;3.60;99.90;;;;;;5118127;28;20999;-78
2022/04/04 03:46:19;;;;;;;8.90;8.10;;;3.70;99.90;;;;;;5116168;28;20470;-79
2022/04/04 03:48:47;;;;;;;9.60;8.70;;;3.60;99.90;;;;;;5110789;28;20853;-78
2022/04/04 03:51:16;;;;;;;9.10;8.20;;;3.60;99.90;;;;;;5098331;28;20440;-79
2022/04/04 03:53:44;;;;;;;10.00;9.10;;;3.70;99.90;;;;;;5110406;28;20472;-79
2022/04/04 03:56:12;;;;;;;10.00;8.57;;;3.70;99.90;;;;;;5097753;28;20977;-78
2022/04/04 03:58:42;;;;;;;9.47;8.63;;;3.70;99.90;;;;;;5118114;28;20472;-79
2022/04/04 04:01:10;;;;;;;11.00;10.00;;;3.70;99.90;;;;;;5116818;28;20542;-78
2022/04/04 04:03:39;;;;;;;11.40;10.20;;;3.70;99.90;;;;;;5116629;28;20463;-78
2022/04/04 04:06:14;;;;;;;10.47;9.33;;;3.70;99.90;;;;;;5105591;28;20472;-78
2022/04/04 04:08:44;;;;;;;11.37;10.27;;;3.70;99.90;;;;;;5127378;28;20439;-78
2022/04/04 04:11:14;;;;;;;10.93;10.00;;;3.70;99.90;;;;;;5126508;28;20451;-78
2022/04/04 04:13:45;;;;;;;11.83;10.83;;;3.70;99.90;;;;;;5121437;28;20423;-78
2022/04/04 04:16:13;;;;;;;11.43;10.37;;;3.70;99.90;;;;;;5109289;28;20479;-78
2022/04/04 04:18:42;;;;;;;11.50;10.50;;;3.70;99.90;;;;;;5115340;28;20443;-79
2022/04/04 04:21:12;;;;;;;12.83;11.43;;;3.70;99.90;;;;;;5111389;28;20453;-78
2022/04/04 04:23:43;;;;;;;11.50;10.40;;;3.70;99.90;;;;;;5118177;28;20455;-78
2022/04/04 04:26:13;;;;;;;11.67;10.60;;;3.80;99.90;;;;;;5118837;28;20466;-79
2022/04/04 04:28:45;;;;;;;13.20;11.83;;;3.70;99.90;;;;;;5118192;28;20439;-78
2022/04/04 04:31:16;;;;;;;14.03;12.63;;;3.80;99.90;;;;;;5110757;28;20459;-78
2022/04/04 04:33:45;;;;;;;13.60;12.40;;;3.80;99.90;;;;;;5121335;28;20447;-79
2022/04/04 04:36:13;;;;;;;13.13;11.83;;;3.80;99.90;;;;;;5123483;28;20480;-78
2022/04/04 04:38:41;;;;;;;13.60;12.30;;;3.80;99.90;;;;;;5123877;28;20554;-79
2022/04/04 04:41:09;;;;;;;13.73;12.33;;;3.80;99.90;;;;;;5115970;28;20460;-78
2022/04/04 04:43:40;;;;;;;13.33;12.13;;;3.80;99.90;;;;;;5116449;28;20903;-78
2022/04/04 04:46:09;;;;;;;13.43;12.23;;;3.80;99.90;;;;;;5105240;27;20478;-79
2022/04/04 04:48:38;;;;;;;13.13;11.93;;;3.80;99.90;;;;;;5097361;28;20452;-78
2022/04/04 04:51:07;;;;;;;14.37;13.00;;;3.90;99.90;;;;;;5104431;28;20543;-79
2022/04/04 04:53:35;;;;;;;13.00;11.77;;;3.90;99.90;;;;;;5097293;28;20432;-78
2022/04/04 04:56:04;;;;;;;13.90;12.57;;;3.90;99.90;;;;;;5096987;28;20547;-78
2022/04/04 04:58:33;;;;;;;15.47;13.87;;;3.90;99.90;;;;;;5098338;28;20448;-78
2022/04/04 05:01:01;;;;;;;14.70;13.17;;;3.90;99.90;;;;;;5105295;28;20916;-78
2022/04/04 05:03:31;;;;;;;15.87;14.47;;;3.90;99.90;;;;;;5117395;28;20470;-79
2022/04/04 05:05:59;;;;;;;15.87;14.37;;;3.90;99.90;;;;;;5115356;28;20471;-79
2022/04/04 05:08:27;;;;;;;14.27;12.87;;;3.90;99.90;;;;;;5099478;28;20459;-78
2022/04/04 05:10:55;;;;;;;15.50;14.00;;;3.90;99.90;;;;;;5116499;28;20493;-78
2022/04/04 05:13:24;;;;;;;15.57;14.17;;;3.90;99.90;;;;;;5115597;28;20447;-78
2022/04/04 05:15:52;;;;;;;15.50;14.10;;;3.90;99.90;;;;;;5117533;28;20831;-79
2022/04/04 05:18:20;;;;;;;15.50;14.03;;;3.90;99.90;;;;;;5118550;28;20445;-79
2022/04/04 05:20:50;;;;;;;14.30;12.90;;;3.90;99.90;;;;;;5117219;28;20446;-79
2022/04/04 05:23:18;;;;;;;14.90;13.50;;;3.90;99.90;;;;;;5118620;28;20864;-79
2022/04/04 05:25:47;;;;;;;15.47;13.90;;;4.00;99.90;;;;;;5120719;28;20463;-80
2022/04/04 05:28:15;;;;;;;16.27;14.77;;;4.00;99.90;;;;;;5119101;28;20459;-80
2022/04/04 05:30:44;;;;;;;18.07;15.03;;;4.00;99.90;;;;;;5119563;28;20431;-79
2022/04/04 05:33:14;;;;;;;15.40;13.90;;;4.00;99.90;;;;;;5118787;28;20455;-79
2022/04/04 05:35:42;;;;;;;15.33;13.93;;;4.00;99.90;;;;;;5119654;28;20447;-79
2022/04/04 05:38:13;;;;;;;15.87;14.37;;;4.00;99.90;;;;;;5116621;28;20884;-79
2022/04/04 05:40:41;;;;;;;16.90;15.20;;;4.00;99.90;;;;;;5117925;28;20446;-79
2022/04/04 05:43:09;;;;;;;15.00;13.50;;;4.10;99.90;;;;;;5117477;28;20530;-79
2022/04/04 05:45:39;;;;;;;15.27;13.93;;;4.10;99.90;;;;;;5118785;28;20483;-79
2022/04/04 05:48:08;;;;;;;20.80;14.90;;;4.10;99.90;;;;;;5118118;28;20545;-79
2022/04/04 05:50:36;;;;;;;16.13;14.53;;;4.10;99.90;;;;;;5117893;28;20451;-79
2022/04/04 05:53:05;;;;;;;16.37;14.83;;;4.10;99.90;;;;;;5118107;28;20452;-79
2022/04/04 05:55:34;;;;;;;16.80;15.30;;;4.10;99.90;;;;;;5119104;28;20483;-79
2022/04/04 05:58:03;;;;;;;15.47;14.07;;;4.10;99.90;;;;;;5118446;28;20897;-80
2022/04/04 06:00:31;;;;;;;16.83;15.30;;;4.10;99.90;;;;;;5120074;28;20841;-79
2022/04/04 06:02:59;;;;;;;15.63;14.23;;;4.10;99.90;;;;;;5118788;28;20550;-79
2022/04/04 06:05:28;;;;;;;16.20;14.70;;;4.10;99.90;;;;;;5119334;28;20528;-80
2022/04/04 06:07:56;;;;;;;16.20;14.60;;;4.10;99.90;;;;;;5116729;28;20444;-79
2022/04/04 06:10:24;;;;;;;18.03;16.10;;;4.10;99.90;;;;;;5118775;28;20443;-79
2022/04/04 06:12:56;;;;;;;17.27;15.50;;;4.10;99.90;;;;;;5118361;28;20431;-80
2022/04/04 06:15:24;;;;;;;16.13;14.63;;;4.00;99.90;;;;;;5118765;28;20536;-79
2022/04/04 06:17:53;;;;;;;15.97;14.57;;;4.00;99.90;;;;;;5117638;28;20473;-79
2022/04/04 06:20:22;;;;;;;17.50;15.80;;;4.10;99.90;;;;;;5117393;28;20538;-78
2022/04/04 06:22:50;;;;;;;16.30;14.80;;;4.10;99.90;;;;;;5116562;28;20439;-78
2022/04/04 06:25:19;;;;;;;17.33;15.53;;;4.10;99.90;;;;;;5117163;28;20577;-79
2022/04/04 06:27:47;;;;;;;18.43;16.67;;;4.10;99.90;;;;;;5118159;28;20455;-79
2022/04/04 06:30:17;;;;;;;18.53;16.73;;;4.10;99.90;;;;;;5116276;28;20443;-78
2022/04/04 06:32:46;;;;;;;17.30;15.77;;;4.00;99.90;;;;;;5117183;28;20485;-78
2022/04/04 06:35:15;;;;;;;17.93;16.33;;;4.00;99.90;;;;;;5116468;28;20554;-78
2022/04/04 06:37:46;;;;;;;17.70;16.10;;;4.00;99.90;;;;;;5116375;28;20450;-78
2022/04/04 06:40:15;;;;;;;18.77;17.07;;;4.00;99.90;;;;;;5116619;28;20951;-78
2022/04/04 06:42:45;;;;;;;18.67;16.93;;;4.00;99.90;;;;;;5117954;28;20469;-78
2022/04/04 06:45:17;;;;;;;19.23;17.63;;;4.00;99.90;;;;;;5116882;28;20814;-78
2022/04/04 06:47:46;;;;;;;20.40;18.50;;;4.00;99.90;;;;;;5117574;28;20439;-80
2022/04/04 06:50:15;;;;;;;21.30;19.50;;;4.00;99.90;;;;;;5120986;28;20455;-78
2022/04/04 06:52:44;;;;;;;20.93;19.07;;;4.10;99.90;;;;;;5119916;28;20550;-78
2022/04/04 06:55:32;;;;;;;20.40;18.60;;;4.00;99.90;;;;;;5117708;28;20455;-77
2022/04/04 06:58:01;;;;;;;21.47;19.60;;;4.00;99.90;;;;;;5117096;28;20870;-77
2022/04/04 07:00:29;;;;;;;21.90;20.00;;;4.00;99.90;;;;;;5118354;28;20469;-78
2022/04/04 07:02:59;;;;;;;22.67;20.67;;;4.00;99.90;;;;;;5119427;28;20450;-78
2022/04/04 07:05:28;;;;;;;21.50;19.60;;;3.90;99.90;;;;;;5119752;28;20471;-78
2022/04/04 07:07:56;;;;;;;23.33;21.30;;;3.90;99.90;;;;;;5118293;28;20448;-78
2022/04/04 07:10:25;;;;;;;24.00;21.90;;;3.90;99.90;;;;;;5118886;28;20997;-78
2022/04/04 07:12:53;;;;;;;23.93;21.83;;;3.80;99.90;;;;;;5122623;28;20470;-78
2022/04/04 07:15:23;;;;;;;24.40;22.30;;;3.80;99.90;;;;;;5121166;28;20524;-78
2022/04/04 07:17:51;;;;;;;24.63;22.53;;;3.80;99.90;;;;;;5121237;28;20966;-78
2022/04/04 07:20:21;;;;;;;24.20;21.80;;;3.80;99.90;;;;;;5117089;28;20459;-78
2022/04/04 07:22:50;;;;;;;24.17;22.17;;;3.80;99.90;;;;;;5119940;28;20483;-78
2022/04/04 07:25:21;;;;;;;24.43;22.23;;;3.80;99.90;;;;;;5119425;28;20840;-78
2022/04/04 07:27:49;;;;;;;23.23;21.23;;;3.80;99.90;;;;;;5116743;28;20530;-78
2022/04/04 07:30:19;;;;;;;25.70;23.60;;;3.80;99.90;;;;;;5117016;28;20443;-77
2022/04/04 07:32:49;;;;;;;24.43;22.43;;;3.80;99.90;;;;;;5118402;28;20450;-79
2022/04/04 07:35:18;;;;;;;25.40;23.07;;;3.80;99.90;;;;;;5121302;28;20478;-78
2022/04/04 07:37:54;;;;;;;24.67;22.50;;;3.80;99.90;;;;;;5119124;28;20464;-78
2022/04/04 07:40:23;;;;;;;24.83;22.67;;;3.80;99.90;;;;;;5116908;28;20989;-78
2022/04/04 07:42:51;;;;;;;22.13;20.23;;;3.80;99.90;;;;;;5116496;28;20501;-78
2022/04/04 07:45:19;;;;;;;23.10;21.00;;;3.80;99.90;;;;;;5118650;28;20475;-78
2022/04/04 07:47:49;;;;;;;24.00;21.80;;;3.80;99.90;;;;;;5119829;28;20512;-78
2022/04/04 07:50:18;;;;;;;22.60;20.70;;;3.90;99.90;;;;;;5118892;28;20447;-78
2022/04/04 07:52:46;;;;;;;22.47;20.40;;;3.90;99.90;;;;;;5117302;28;20447;-77
2022/04/04 07:55:16;;;;;;;20.20;18.43;;;3.90;99.90;;;;;;5117021;28;20907;-78
2022/04/04 07:57:45;;;;;;;19.40;17.60;;;3.90;99.90;;;;;;5118662;28;20450;-79
2022/04/04 08:00:17;;;;;;;20.60;18.63;;;3.90;99.90;;;;;;5118083;28;20457;-78
2022/04/04 08:02:46;;;;;;;19.50;17.60;;;4.00;99.90;;;;;;5117983;28;20471;-78
2022/04/04 08:05:16;;;;;;;18.23;16.40;;;4.00;99.90;;;;;;5116761;28;20990;-78
2022/04/04 08:07:47;;;;;;;17.37;15.67;;;4.10;99.90;;;;;;5117164;28;20435;-77
2022/04/04 08:10:17;;;;;;;17.40;15.83;;;4.10;99.90;;;;;;5119295;28;20490;-78
2022/04/04 08:12:46;;;;;;;15.83;14.43;;;4.10;99.90;;;;;;5117021;28;20443;-78
2022/04/04 08:15:14;;;;;;;16.47;15.00;;;4.20;99.90;;;;;;5118850;28;20459;-78
2022/04/04 08:17:43;;;;;;;16.03;14.53;;;4.30;99.90;;;;;;5119387;28;20446;-78
2022/04/04 08:20:12;;;;;;;16.00;14.33;;;4.30;99.90;;;;;;5119323;28;20440;-78
2022/04/04 08:22:42;;;;;;;15.20;13.87;;;4.40;99.90;;;;;;5118536;28;20500;-78
2022/04/04 08:25:11;;;;;;;14.60;13.30;;;4.40;99.90;;;;;;5116419;28;20474;-78
2022/04/04 08:27:41;;;;;;;16.07;14.53;;;4.50;99.90;;;;;;5117450;28;20492;-78
2022/04/04 08:30:11;;;;;;;13.83;12.53;;;4.50;99.90;;;;;;5118119;28;20432;-78
2022/04/04 08:32:40;;;;;;;14.00;12.80;;;4.60;99.90;;;;;;5117993;28;20443;-78
2022/04/04 08:35:11;;;;;;;13.40;12.20;;;4.70;99.90;;;;;;5116684;28;20482;-78
2022/04/04 08:37:41;;;;;;;12.17;10.97;;;4.80;99.90;;;;;;5117998;28;20480;-78
2022/04/04 08:40:12;;;;;;;12.20;11.10;;;4.80;99.90;;;;;;5119939;28;20439;-78
2022/04/04 08:42:42;;;;;;;12.53;11.33;;;4.80;99.90;;;;;;5114886;28;20872;-77
2022/04/04 08:45:11;;;;;;;12.27;11.17;;;4.90;99.90;;;;;;5114071;28;20471;-77
2022/04/04 08:47:40;;;;;;;13.13;11.70;;;4.90;99.90;;;;;;5114065;28;20469;-77
2022/04/04 08:50:09;;;;;;;12.87;11.57;;;5.00;99.90;;;;;;5113932;28;20483;-77
2022/04/04 08:52:38;;;;;;;12.23;11.17;;;5.00;99.90;;;;;;5113740;28;20452;-77
2022/04/04 08:55:08;;;;;;;13.10;11.90;;;5.00;99.90;;;;;;5115165;28;20534;-78
2022/04/04 08:57:36;;;;;;;13.67;12.40;;;5.00;99.90;;;;;;5114799;28;20994;-77
2022/04/04 09:00:08;;;;;;;11.40;10.50;;;5.00;99.90;;;;;;5113315;28;20513;-77
2022/04/04 09:02:56;;;;;;;12.77;11.77;;;5.10;99.90;;;;;;5114775;28;20416;-77
2022/04/04 09:05:26;;;;;;;13.47;12.27;;;5.10;99.90;;;;;;5114295;28;20470;-76
2022/04/04 09:08:03;;;;;;;12.77;11.67;;;5.10;99.90;;;;;;5112663;28;20447;-77
2022/04/04 09:10:33;;;;;;;12.57;11.47;;;5.10;99.90;;;;;;5114448;28;20412;-77
2022/04/04 09:13:13;;;;;;;13.20;12.10;;;5.10;99.90;;;;;;5113510;28;20447;-77
2022/04/04 09:15:55;;;;;;;13.97;12.63;;;5.10;99.90;;;;;;5113167;28;20475;-78
2022/04/04 09:18:42;;;;;;;14.27;12.97;;;5.10;99.90;;;;;;5114861;28;20423;-78
2022/04/04 09:21:12;;;;;;;14.03;12.70;;;5.00;99.90;;;;;;5114508;28;20447;-77
2022/04/04 09:23:55;;;;;;;14.63;13.23;;;5.00;99.90;;;;;;5113380;28;20891;-77
2022/04/04 09:26:29;;;;;;;15.33;13.83;;;5.00;99.90;;;;;;5112801;28;20472;-77
2022/04/04 09:28:57;;;;;;;14.10;12.80;;;5.00;99.90;;;;;;5114088;28;20431;-77
2022/04/04 09:31:27;;;;;;;14.53;13.33;;;5.00;99.90;;;;;;5113485;28;20439;-78
2022/04/04 09:34:01;;;;;;;13.67;12.57;;;5.00;99.90;;;;;;5114547;28;20435;-77
2022/04/04 09:36:29;;;;;;;14.60;13.40;;;5.00;99.90;;;;;;5113188;28;20479;-77
2022/04/04 09:39:03;;;;;;;14.70;13.60;;;5.00;99.90;;;;;;5114428;28;20477;-77
2022/04/04 09:41:38;;;;;;;15.53;14.17;;;5.00;99.90;;;;;;5113217;28;20805;-77
2022/04/04 09:44:08;;;;;;;14.73;13.43;;;5.00;99.90;;;;;;5113175;28;20505;-77
2022/04/04 09:46:40;;;;;;;16.50;15.20;;;5.00;99.90;;;;;;5113444;28;20839;-78
2022/04/04 09:49:11;;;;;;;16.03;14.43;;;5.00;99.90;;;;;;5112692;28;20814;-77
2022/04/04 09:51:42;;;;;;;16.30;14.87;;;5.00;99.90;;;;;;5112903;28;20944;-77
2022/04/04 09:54:13;;;;;;;16.83;15.40;;;5.00;99.90;;;;;;5113439;28;20435;-77
2022/04/04 09:56:42;;;;;;;15.50;14.20;;;5.00;99.90;;;;;;5113678;28;20443;-78
2022/04/04 09:59:12;;;;;;;16.63;15.23;;;5.10;99.90;;;;;;5112736;28;20446;-77
2022/04/04 10:01:43;;;;;;;18.10;16.60;;;5.10;99.90;;;;;;5113186;28;20435;-77
2022/04/04 10:04:13;;;;;;;16.37;14.90;;;5.00;99.90;;;;;;5114028;28;20504;-78
2022/04/04 10:06:47;;;;;;;16.60;15.30;;;5.10;99.90;;;;;;5117447;28;20471;-76
2022/04/04 10:09:15;;;;;;;17.67;16.17;;;5.10;99.90;;;;;;5114542;28;20435;-77
2022/04/04 10:11:43;;;;;;;18.00;16.30;;;5.10;99.90;;;;;;5114865;28;20538;-77
2022/04/04 10:14:16;;;;;;;17.60;16.20;;;5.10;99.90;;;;;;5115553;28;20477;-76
2022/04/04 10:16:46;;;;;;;18.50;17.00;;;5.10;99.90;;;;;;5114718;28;20439;-77
2022/04/04 10:19:16;;;;;;;18.13;16.57;;;5.10;99.90;;;;;;5116447;28;20435;-77
2022/04/04 10:21:46;;;;;;;18.47;16.87;;;5.10;99.90;;;;;;5119379;28;20991;-78
2022/04/04 10:24:15;;;;;;;19.97;18.17;;;5.10;99.90;;;;;;5119470;28;20446;-77
2022/04/04 10:26:50;;;;;;;18.10;16.60;;;5.10;99.90;;;;;;5119225;28;20492;-78
2022/04/04 10:29:22;;;;;;;19.10;17.57;;;5.20;99.90;;;;;;5119432;28;20773;-77
2022/04/04 10:31:55;;;;;;;21.23;18.97;;;5.20;99.90;;;;;;5117112;28;20455;-77
2022/04/04 10:34:26;;;;;;;20.60;18.60;;;5.20;99.90;;;;;;5119661;28;20431;-77
2022/04/04 10:37:00;;;;;;;20.80;19.10;;;5.20;99.90;;;;;;5117205;28;20484;-77
2022/04/04 10:39:44;;;;;;;16.77;15.30;;;5.20;99.90;;;;;;5116957;28;20447;-78
2022/04/04 10:42:31;;;;;;;21.67;19.70;;;5.20;99.90;;;;;;5116302;28;20453;-77
2022/04/04 10:45:04;;;;;;;19.20;17.53;;;5.20;99.90;;;;;;5117908;28;20460;-78
2022/04/04 10:47:36;;;;;;;19.67;18.03;;;5.30;99.90;;;;;;5117762;28;20451;-78
2022/04/04 10:50:23;;;;;;;20.67;18.97;;;5.30;99.90;;;;;;5116529;28;20476;-78
2022/04/04 10:52:52;;;;;;;19.77;18.27;;;5.30;99.90;;;;;;5117763;28;20428;-77
2022/04/04 10:55:48;;;;;;;20.20;18.60;;;5.30;99.90;;;;;;5116357;28;20471;-77
2022/04/04 10:58:25;;;;;;;20.07;18.47;;;5.30;99.90;;;;;;5116082;28;20448;-78
2022/04/04 11:01:14;;;;;;;20.23;18.63;;;5.40;99.90;;;;;;5116647;28;20450;-78
2022/04/04 11:04:00;;;;;;;19.27;17.67;;;5.40;99.90;;;;;;5117364;28;20500;-77
2022/04/04 11:09:36;;;;;;;20.30;18.60;;;5.50;99.90;;;;;;5117323;28;20467;-78
2022/04/04 11:12:12;;;;;;;20.47;18.93;;;5.50;99.90;;;;;;5116868;28;20443;-77
2022/04/04 11:14:54;;;;;;;19.97;18.37;;;5.50;99.90;;;;;;5116417;28;20467;-78
2022/04/04 11:17:30;;;;;;;20.43;18.73;;;5.50;99.90;;;;;;5117961;28;20431;-77
2022/04/04 11:20:10;;;;;;;20.10;18.50;;;5.50;99.90;;;;;;5117221;28;20415;-77
2022/04/04 11:22:45;;;;;;;20.03;18.33;;;5.50;99.90;;;;;;5117775;28;20474;-77
2022/04/04 11:25:16;;;;;;;21.10;19.47;;;5.60;99.90;;;;;;5115989;28;20498;-78
2022/04/04 11:27:48;;;;;;;20.60;19.10;;;5.60;99.90;;;;;;5116440;28;20499;-77
2022/04/04 11:30:18;;;;;;;20.07;18.47;;;5.60;99.90;;;;;;5115172;28;20443;-77
2022/04/04 11:32:53;;;;;;;20.73;19.03;;;5.60;99.90;;;;;;5115255;28;20851;-77
2022/04/04 11:35:27;;;;;;;20.40;18.80;;;5.60;99.90;;;;;;5117577;28;20460;-77
2022/04/04 11:37:57;;;;;;;20.07;18.50;;;5.60;99.90;;;;;;5116088;28;20466;-76
2022/04/04 11:40:29;;;;;;;20.33;18.73;;;5.60;99.90;;;;;;5115308;28;20451;-77
2022/04/04 11:42:59;;;;;;;19.10;17.70;;;5.70;99.90;;;;;;5117039;28;20936;-77
2022/04/04 11:45:30;;;;;;;18.40;17.00;;;5.60;99.90;;;;;;5116093;28;20845;-77
2022/04/04 11:48:01;;;;;;;18.20;16.80;;;5.70;99.90;;;;;;5115000;28;20988;-78
2022/04/04 11:50:34;;;;;;;18.00;16.70;;;5.70;99.90;;;;;;5117252;28;20426;-78
2022/04/04 11:53:05;;;;;;;18.17;16.67;;;5.70;99.90;;;;;;5115013;28;20456;-78
2022/04/04 11:55:36;;;;;;;18.03;16.70;;;5.80;99.90;;;;;;5115018;28;20552;-77
2022/04/04 11:58:10;;;;;;;17.07;15.77;;;5.80;99.90;;;;;;5116230;28;20462;-77
2022/04/04 12:00:39;;;;;;;18.33;16.93;;;5.80;99.90;;;;;;5114675;28;20445;-77
2022/04/04 12:03:10;;;;;;;17.20;15.90;;;5.80;99.90;;;;;;5115649;28;20459;-78
2022/04/04 12:05:42;;;;;;;16.57;15.23;;;5.80;99.90;;;;;;5116209;28;20940;-78
2022/04/04 12:08:12;;;;;;;15.87;14.70;;;5.80;99.90;;;;;;5114753;28;20471;-77
2022/04/04 12:10:41;;;;;;;16.70;15.50;;;5.80;99.90;;;;;;5116503;28;20439;-77
2022/04/04 12:13:10;;;;;;;17.63;16.30;;;5.90;99.90;;;;;;5114597;28;20454;-77
2022/04/04 12:15:42;;;;;;;16.40;15.20;;;5.90;99.90;;;;;;5116291;28;20463;-77
2022/04/04 12:18:12;;;;;;;15.80;14.60;;;5.90;99.90;;;;;;5116795;28;20424;-78
2022/04/04 12:20:43;;;;;;;15.47;14.27;;;5.90;99.90;;;;;;5116081;27;20522;-77
2022/04/04 12:26:00;;;;;;;15.23;14.03;;;6.00;99.90;;;;;;5115257;28;20474;-78
2022/04/04 12:28:30;;;;;;;14.30;13.20;;;6.00;99.90;;;;;;5116669;28;21058;-78
2022/04/04 12:31:09;;;;;;;15.40;14.30;;;6.00;99.90;;;;;;5116484;28;20439;-78
2022/04/04 12:33:37;;;;;;;13.63;12.63;;;6.00;99.90;;;;;;5117686;28;20856;-78
2022/04/04 12:36:07;;;;;;;12.40;11.40;;;6.00;99.90;;;;;;5115845;28;20494;-78
2022/04/04 12:38:38;;;;;;;13.83;12.83;;;6.10;99.90;;;;;;5116183;28;20473;-78
2022/04/04 12:41:11;;;;;;;12.97;12.07;;;6.10;99.90;;;;;;5115056;28;20479;-77
2022/04/04 12:43:42;;;;;;;12.37;11.47;;;6.10;99.90;;;;;;5114452;28;20540;-78
2022/04/04 12:46:25;;;;;;;12.07;11.17;;;6.10;99.90;;;;;;5114841;28;20497;-77
2022/04/04 12:49:14;;;;;;;12.07;11.27;;;6.20;99.90;;;;;;5121351;28;20458;-78
2022/04/04 12:51:55;;;;;;;12.10;11.30;;;6.20;99.90;;;;;;5120960;28;20511;-78
2022/04/04 12:54:26;;;;;;;11.73;10.93;;;6.20;99.90;;;;;;5122130;28;20449;-79
2022/04/04 12:56:56;;;;;;;12.40;11.50;;;6.20;99.90;;;;;;5115947;28;20509;-77
2022/04/04 12:59:25;;;;;;;12.20;11.37;;;6.20;99.90;;;;;;5117292;28;20520;-78
2022/04/04 13:02:06;;;;;;;13.07;12.07;;;6.20;99.90;;;;;;5118004;28;20460;-78
2022/04/04 13:04:35;;;;;;;12.33;11.43;;;6.20;99.90;;;;;;5118302;28;20816;-78